sensor_id;sensor_type;location;lat;lon;timestamp;P1;durP1;ratioP1;P2;durP2;ratioP2
22097;SDS011;11215;51.938;8.464;2023-11-21T00:01:25;15.57;;;12.63;;
22097;SDS011;11215;51.938;8.464;2023-11-21T00:03:54;16.53;;;12.10;;
22097;SDS011;11215;51.938;8.464;2023-11-21T00:06:20;17.67;;;13.23;;
22097;SDS011;11215;51.938;8.464;2023-11-21T00:08:47;15.60;;;12.63;;
22097;SDS011;11215;51.938;8.464;2023-11-21T00:11:16;19.53;;;13.60;;
22097;SDS011;11215;51.938;8.464;2023-11-21T00:13:42;18.63;;;13.20;;
22097;SDS011;11215;51.938;8.464;2023-11-21T00:16:09;17.50;;;12.70;;
22097;SDS011;11215;51.938;8.464;2023-11-21T00:18:35;16.13;;;11.87;;
22097;SDS011;11215;51.938;8.464;2023-11-21T00:21:13;12.60;;;10.27;;
22097;SDS011;11215;51.938;8.464;2023-11-21T00:23:43;16.27;;;11.60;;
22097;SDS011;11215;51.938;8.464;2023-11-21T00:26:08;13.97;;;11.23;;
22097;SDS011;11215;51.938;8.464;2023-11-21T00:28:35;16.37;;;11.90;;
22097;SDS011;11215;51.938;8.464;2023-11-21T00:31:01;16.37;;;12.23;;
22097;SDS011;11215;51.938;8.464;2023-11-21T00:33:29;16.07;;;12.47;;
22097;SDS011;11215;51.938;8.464;2023-11-21T00:35:55;15.40;;;12.50;;
22097;SDS011;11215;51.938;8.464;2023-11-21T00:38:21;14.37;;;10.93;;
22097;SDS011;11215;51.938;8.464;2023-11-21T00:40:47;13.63;;;11.07;;
22097;SDS011;11215;51.938;8.464;2023-11-21T00:43:13;12.40;;;10.70;;
22097;SDS011;11215;51.938;8.464;2023-11-21T00:45:42;13.53;;;10.77;;
22097;SDS011;11215;51.938;8.464;2023-11-21T00:48:08;13.97;;;10.60;;
22097;SDS011;11215;51.938;8.464;2023-11-21T00:50:37;13.30;;;11.47;;
22097;SDS011;11215;51.938;8.464;2023-11-21T00:53:03;15.73;;;12.73;;
22097;SDS011;11215;51.938;8.464;2023-11-21T00:55:29;15.97;;;11.67;;
22097;SDS011;11215;51.938;8.464;2023-11-21T00:57:55;14.20;;;11.57;;
22097;SDS011;11215;51.938;8.464;2023-11-21T01:00:24;16.80;;;12.97;;
22097;SDS011;11215;51.938;8.464;2023-11-21T01:02:49;17.43;;;13.10;;
22097;SDS011;11215;51.938;8.464;2023-11-21T01:05:19;15.77;;;11.53;;
22097;SDS011;11215;51.938;8.464;2023-11-21T01:07:45;16.57;;;12.17;;
22097;SDS011;11215;51.938;8.464;2023-11-21T01:10:11;18.47;;;13.17;;
22097;SDS011;11215;51.938;8.464;2023-11-21T01:12:40;17.83;;;13.27;;
22097;SDS011;11215;51.938;8.464;2023-11-21T01:15:06;15.67;;;11.90;;
22097;SDS011;11215;51.938;8.464;2023-11-21T01:17:38;18.40;;;11.73;;
22097;SDS011;11215;51.938;8.464;2023-11-21T01:20:04;19.63;;;12.17;;
22097;SDS011;11215;51.938;8.464;2023-11-21T01:22:36;17.33;;;12.57;;
22097;SDS011;11215;51.938;8.464;2023-11-21T01:25:03;16.13;;;11.50;;
22097;SDS011;11215;51.938;8.464;2023-11-21T01:27:33;14.90;;;11.63;;
22097;SDS011;11215;51.938;8.464;2023-11-21T01:30:04;13.67;;;10.07;;
22097;SDS011;11215;51.938;8.464;2023-11-21T01:32:33;13.97;;;10.20;;
22097;SDS011;11215;51.938;8.464;2023-11-21T01:35:04;14.80;;;10.80;;
22097;SDS011;11215;51.938;8.464;2023-11-21T01:37:32;14.50;;;10.63;;
22097;SDS011;11215;51.938;8.464;2023-11-21T01:40:01;12.30;;;9.60;;
22097;SDS011;11215;51.938;8.464;2023-11-21T01:42:30;11.00;;;9.13;;
22097;SDS011;11215;51.938;8.464;2023-11-21T01:44:56;13.17;;;9.57;;
22097;SDS011;11215;51.938;8.464;2023-11-21T01:47:22;13.30;;;10.33;;
22097;SDS011;11215;51.938;8.464;2023-11-21T01:49:51;17.07;;;11.93;;
22097;SDS011;11215;51.938;8.464;2023-11-21T01:52:18;17.77;;;12.80;;
22097;SDS011;11215;51.938;8.464;2023-11-21T01:54:45;16.83;;;11.43;;
22097;SDS011;11215;51.938;8.464;2023-11-21T01:57:12;13.93;;;11.43;;
22097;SDS011;11215;51.938;8.464;2023-11-21T01:59:40;14.27;;;11.10;;
22097;SDS011;11215;51.938;8.464;2023-11-21T02:02:07;14.40;;;10.97;;
22097;SDS011;11215;51.938;8.464;2023-11-21T02:04:34;13.70;;;10.67;;
22097;SDS011;11215;51.938;8.464;2023-11-21T02:07:07;14.07;;;11.40;;
22097;SDS011;11215;51.938;8.464;2023-11-21T02:09:39;18.40;;;12.33;;
22097;SDS011;11215;51.938;8.464;2023-11-21T02:12:08;16.50;;;11.80;;
22097;SDS011;11215;51.938;8.464;2023-11-21T02:14:37;19.23;;;14.13;;
22097;SDS011;11215;51.938;8.464;2023-11-21T02:17:05;17.33;;;12.13;;
22097;SDS011;11215;51.938;8.464;2023-11-21T02:19:31;21.47;;;14.37;;
22097;SDS011;11215;51.938;8.464;2023-11-21T02:21:58;24.30;;;14.33;;
22097;SDS011;11215;51.938;8.464;2023-11-21T02:24:25;18.77;;;13.00;;
22097;SDS011;11215;51.938;8.464;2023-11-21T02:26:52;14.37;;;11.03;;
22097;SDS011;11215;51.938;8.464;2023-11-21T02:29:21;15.17;;;12.03;;
22097;SDS011;11215;51.938;8.464;2023-11-21T02:31:47;16.53;;;11.27;;
22097;SDS011;11215;51.938;8.464;2023-11-21T02:34:15;15.80;;;10.90;;
22097;SDS011;11215;51.938;8.464;2023-11-21T02:36:41;16.50;;;11.53;;
22097;SDS011;11215;51.938;8.464;2023-11-21T02:39:08;18.37;;;11.70;;
22097;SDS011;11215;51.938;8.464;2023-11-21T02:41:35;12.77;;;10.87;;
22097;SDS011;11215;51.938;8.464;2023-11-21T02:44:01;16.03;;;10.97;;
22097;SDS011;11215;51.938;8.464;2023-11-21T02:46:27;14.63;;;11.00;;
22097;SDS011;11215;51.938;8.464;2023-11-21T02:48:53;17.43;;;11.53;;
22097;SDS011;11215;51.938;8.464;2023-11-21T02:51:19;13.63;;;11.03;;
22097;SDS011;11215;51.938;8.464;2023-11-21T02:53:45;15.60;;;11.27;;
22097;SDS011;11215;51.938;8.464;2023-11-21T02:56:14;14.73;;;10.80;;
22097;SDS011;11215;51.938;8.464;2023-11-21T02:58:43;15.70;;;11.43;;
22097;SDS011;11215;51.938;8.464;2023-11-21T03:01:09;15.97;;;11.30;;
22097;SDS011;11215;51.938;8.464;2023-11-21T03:03:36;19.20;;;11.20;;
22097;SDS011;11215;51.938;8.464;2023-11-21T03:06:08;16.67;;;11.30;;
22097;SDS011;11215;51.938;8.464;2023-11-21T03:08:33;13.67;;;10.90;;
22097;SDS011;11215;51.938;8.464;2023-11-21T03:10:59;15.20;;;10.80;;
22097;SDS011;11215;51.938;8.464;2023-11-21T03:13:25;17.07;;;10.63;;
22097;SDS011;11215;51.938;8.464;2023-11-21T03:15:51;13.37;;;10.27;;
22097;SDS011;11215;51.938;8.464;2023-11-21T03:18:17;15.03;;;10.87;;
22097;SDS011;11215;51.938;8.464;2023-11-21T03:20:45;14.30;;;9.90;;
22097;SDS011;11215;51.938;8.464;2023-11-21T03:23:11;13.37;;;9.87;;
22097;SDS011;11215;51.938;8.464;2023-11-21T03:25:37;13.03;;;10.23;;
22097;SDS011;11215;51.938;8.464;2023-11-21T03:28:03;15.67;;;10.50;;
22097;SDS011;11215;51.938;8.464;2023-11-21T03:30:29;13.80;;;10.90;;
22097;SDS011;11215;51.938;8.464;2023-11-21T03:32:54;14.10;;;10.17;;
22097;SDS011;11215;51.938;8.464;2023-11-21T03:35:20;15.30;;;10.10;;
22097;SDS011;11215;51.938;8.464;2023-11-21T03:37:46;13.67;;;9.60;;
22097;SDS011;11215;51.938;8.464;2023-11-21T03:40:12;15.87;;;10.77;;
22097;SDS011;11215;51.938;8.464;2023-11-21T03:42:41;16.17;;;11.33;;
22097;SDS011;11215;51.938;8.464;2023-11-21T03:45:09;18.47;;;10.87;;
22097;SDS011;11215;51.938;8.464;2023-11-21T03:47:37;16.93;;;10.93;;
22097;SDS011;11215;51.938;8.464;2023-11-21T03:50:03;13.80;;;10.53;;
22097;SDS011;11215;51.938;8.464;2023-11-21T03:52:29;13.23;;;10.37;;
22097;SDS011;11215;51.938;8.464;2023-11-21T03:54:55;14.03;;;9.87;;
22097;SDS011;11215;51.938;8.464;2023-11-21T03:57:21;11.27;;;9.13;;
22097;SDS011;11215;51.938;8.464;2023-11-21T03:59:47;11.80;;;8.67;;
22097;SDS011;11215;51.938;8.464;2023-11-21T04:02:12;14.13;;;9.50;;
22097;SDS011;11215;51.938;8.464;2023-11-21T04:04:38;12.67;;;9.37;;
22097;SDS011;11215;51.938;8.464;2023-11-21T04:07:04;12.10;;;9.27;;
22097;SDS011;11215;51.938;8.464;2023-11-21T04:09:30;12.60;;;9.87;;
22097;SDS011;11215;51.938;8.464;2023-11-21T04:11:56;11.17;;;8.83;;
22097;SDS011;11215;51.938;8.464;2023-11-21T04:14:21;15.20;;;10.33;;
22097;SDS011;11215;51.938;8.464;2023-11-21T04:16:47;16.77;;;9.80;;
22097;SDS011;11215;51.938;8.464;2023-11-21T04:19:13;14.97;;;9.87;;
22097;SDS011;11215;51.938;8.464;2023-11-21T04:21:40;16.10;;;10.80;;
22097;SDS011;11215;51.938;8.464;2023-11-21T04:24:07;11.47;;;9.60;;
22097;SDS011;11215;51.938;8.464;2023-11-21T04:26:33;13.27;;;10.30;;
22097;SDS011;11215;51.938;8.464;2023-11-21T04:28:58;14.30;;;10.50;;
22097;SDS011;11215;51.938;8.464;2023-11-21T04:31:24;12.17;;;9.83;;
22097;SDS011;11215;51.938;8.464;2023-11-21T04:33:50;13.37;;;10.77;;
22097;SDS011;11215;51.938;8.464;2023-11-21T04:36:17;15.67;;;10.77;;
22097;SDS011;11215;51.938;8.464;2023-11-21T04:38:43;11.67;;;10.30;;
22097;SDS011;11215;51.938;8.464;2023-11-21T04:41:09;13.87;;;10.50;;
22097;SDS011;11215;51.938;8.464;2023-11-21T04:43:40;14.40;;;10.43;;
22097;SDS011;11215;51.938;8.464;2023-11-21T04:46:08;12.83;;;10.60;;
22097;SDS011;11215;51.938;8.464;2023-11-21T04:48:35;14.33;;;10.73;;
22097;SDS011;11215;51.938;8.464;2023-11-21T04:51:04;18.13;;;11.43;;
22097;SDS011;11215;51.938;8.464;2023-11-21T04:53:31;18.70;;;12.23;;
22097;SDS011;11215;51.938;8.464;2023-11-21T04:56:00;12.60;;;10.07;;
22097;SDS011;11215;51.938;8.464;2023-11-21T04:58:26;15.77;;;10.57;;
22097;SDS011;11215;51.938;8.464;2023-11-21T05:00:58;17.23;;;12.13;;
22097;SDS011;11215;51.938;8.464;2023-11-21T05:03:25;14.03;;;9.63;;
22097;SDS011;11215;51.938;8.464;2023-11-21T05:05:54;12.27;;;9.93;;
22097;SDS011;11215;51.938;8.464;2023-11-21T05:08:21;21.87;;;14.13;;
22097;SDS011;11215;51.938;8.464;2023-11-21T05:10:48;18.60;;;13.97;;
22097;SDS011;11215;51.938;8.464;2023-11-21T05:13:14;18.13;;;14.00;;
22097;SDS011;11215;51.938;8.464;2023-11-21T05:15:42;16.13;;;12.77;;
22097;SDS011;11215;51.938;8.464;2023-11-21T05:18:11;16.50;;;12.73;;
22097;SDS011;11215;51.938;8.464;2023-11-21T05:20:39;16.37;;;12.20;;
22097;SDS011;11215;51.938;8.464;2023-11-21T05:23:06;16.57;;;13.13;;
22097;SDS011;11215;51.938;8.464;2023-11-21T05:25:33;15.73;;;10.30;;
22097;SDS011;11215;51.938;8.464;2023-11-21T05:27:59;15.53;;;12.07;;
22097;SDS011;11215;51.938;8.464;2023-11-21T05:30:31;18.43;;;12.23;;
22097;SDS011;11215;51.938;8.464;2023-11-21T05:32:58;18.30;;;12.63;;
22097;SDS011;11215;51.938;8.464;2023-11-21T05:35:28;16.83;;;11.93;;
22097;SDS011;11215;51.938;8.464;2023-11-21T05:37:57;16.50;;;13.17;;
22097;SDS011;11215;51.938;8.464;2023-11-21T05:40:28;14.53;;;11.07;;
22097;SDS011;11215;51.938;8.464;2023-11-21T05:42:56;12.70;;;10.23;;
22097;SDS011;11215;51.938;8.464;2023-11-21T05:45:24;18.53;;;12.13;;
22097;SDS011;11215;51.938;8.464;2023-11-21T05:47:50;16.77;;;12.13;;
22097;SDS011;11215;51.938;8.464;2023-11-21T05:50:17;12.37;;;10.27;;
22097;SDS011;11215;51.938;8.464;2023-11-21T05:52:47;16.63;;;11.43;;
22097;SDS011;11215;51.938;8.464;2023-11-21T05:55:16;14.13;;;12.40;;
22097;SDS011;11215;51.938;8.464;2023-11-21T05:57:47;14.50;;;11.77;;
22097;SDS011;11215;51.938;8.464;2023-11-21T06:00:14;14.37;;;10.30;;
22097;SDS011;11215;51.938;8.464;2023-11-21T06:02:48;14.30;;;11.03;;
22097;SDS011;11215;51.938;8.464;2023-11-21T06:05:21;16.70;;;11.63;;
22097;SDS011;11215;51.938;8.464;2023-11-21T06:07:49;14.23;;;12.17;;
22097;SDS011;11215;51.938;8.464;2023-11-21T06:10:19;15.60;;;12.20;;
22097;SDS011;11215;51.938;8.464;2023-11-21T06:12:46;15.73;;;11.47;;
22097;SDS011;11215;51.938;8.464;2023-11-21T06:15:13;15.60;;;11.83;;
22097;SDS011;11215;51.938;8.464;2023-11-21T06:17:41;16.77;;;11.93;;
22097;SDS011;11215;51.938;8.464;2023-11-21T06:20:19;16.60;;;12.40;;
22097;SDS011;11215;51.938;8.464;2023-11-21T06:22:47;16.23;;;11.80;;
22097;SDS011;11215;51.938;8.464;2023-11-21T06:25:15;17.83;;;12.73;;
22097;SDS011;11215;51.938;8.464;2023-11-21T06:27:43;17.80;;;12.83;;
22097;SDS011;11215;51.938;8.464;2023-11-21T06:30:14;16.37;;;12.00;;
22097;SDS011;11215;51.938;8.464;2023-11-21T06:32:41;19.17;;;13.23;;
22097;SDS011;11215;51.938;8.464;2023-11-21T06:35:29;15.90;;;12.37;;
22097;SDS011;11215;51.938;8.464;2023-11-21T06:37:57;15.47;;;12.20;;
22097;SDS011;11215;51.938;8.464;2023-11-21T06:40:24;17.43;;;12.90;;
22097;SDS011;11215;51.938;8.464;2023-11-21T06:42:52;16.93;;;13.60;;
22097;SDS011;11215;51.938;8.464;2023-11-21T06:45:18;18.10;;;12.83;;
22097;SDS011;11215;51.938;8.464;2023-11-21T06:47:48;16.07;;;11.83;;
22097;SDS011;11215;51.938;8.464;2023-11-21T06:50:14;17.13;;;12.23;;
22097;SDS011;11215;51.938;8.464;2023-11-21T06:52:40;16.30;;;12.33;;
22097;SDS011;11215;51.938;8.464;2023-11-21T06:55:06;16.33;;;11.20;;
22097;SDS011;11215;51.938;8.464;2023-11-21T06:57:36;15.37;;;12.57;;
22097;SDS011;11215;51.938;8.464;2023-11-21T07:00:03;16.87;;;11.80;;
22097;SDS011;11215;51.938;8.464;2023-11-21T07:02:30;15.33;;;12.60;;
22097;SDS011;11215;51.938;8.464;2023-11-21T07:04:56;16.83;;;12.60;;
22097;SDS011;11215;51.938;8.464;2023-11-21T07:07:22;21.23;;;13.73;;
22097;SDS011;11215;51.938;8.464;2023-11-21T07:09:48;19.97;;;14.53;;
22097;SDS011;11215;51.938;8.464;2023-11-21T07:12:14;19.67;;;13.23;;
22097;SDS011;11215;51.938;8.464;2023-11-21T07:14:40;19.50;;;13.47;;
22097;SDS011;11215;51.938;8.464;2023-11-21T07:17:09;21.57;;;13.33;;
22097;SDS011;11215;51.938;8.464;2023-11-21T07:19:38;14.10;;;11.33;;
22097;SDS011;11215;51.938;8.464;2023-11-21T07:22:04;15.90;;;12.40;;
22097;SDS011;11215;51.938;8.464;2023-11-21T07:24:31;16.60;;;13.17;;
22097;SDS011;11215;51.938;8.464;2023-11-21T07:26:57;19.77;;;14.00;;
22097;SDS011;11215;51.938;8.464;2023-11-21T07:29:24;21.23;;;14.80;;
22097;SDS011;11215;51.938;8.464;2023-11-21T07:31:54;23.40;;;14.53;;
22097;SDS011;11215;51.938;8.464;2023-11-21T07:34:20;20.33;;;14.67;;
22097;SDS011;11215;51.938;8.464;2023-11-21T07:36:49;20.27;;;14.63;;
22097;SDS011;11215;51.938;8.464;2023-11-21T07:39:16;21.80;;;14.67;;
22097;SDS011;11215;51.938;8.464;2023-11-21T07:41:42;22.83;;;15.57;;
22097;SDS011;11215;51.938;8.464;2023-11-21T07:44:13;24.90;;;14.77;;
22097;SDS011;11215;51.938;8.464;2023-11-21T07:46:40;24.03;;;15.33;;
22097;SDS011;11215;51.938;8.464;2023-11-21T07:49:06;21.57;;;14.33;;
22097;SDS011;11215;51.938;8.464;2023-11-21T07:51:32;23.93;;;15.50;;
22097;SDS011;11215;51.938;8.464;2023-11-21T07:53:58;21.63;;;14.93;;
22097;SDS011;11215;51.938;8.464;2023-11-21T07:56:24;20.80;;;14.77;;
22097;SDS011;11215;51.938;8.464;2023-11-21T07:58:50;23.80;;;15.33;;
22097;SDS011;11215;51.938;8.464;2023-11-21T08:01:15;27.50;;;15.63;;
22097;SDS011;11215;51.938;8.464;2023-11-21T08:03:41;22.50;;;16.07;;
22097;SDS011;11215;51.938;8.464;2023-11-21T08:06:09;23.50;;;15.83;;
22097;SDS011;11215;51.938;8.464;2023-11-21T08:08:35;22.60;;;16.43;;
22097;SDS011;11215;51.938;8.464;2023-11-21T08:11:01;22.60;;;16.57;;
22097;SDS011;11215;51.938;8.464;2023-11-21T08:13:28;27.07;;;15.83;;
22097;SDS011;11215;51.938;8.464;2023-11-21T08:15:58;27.57;;;16.83;;
22097;SDS011;11215;51.938;8.464;2023-11-21T08:18:29;23.13;;;15.80;;
22097;SDS011;11215;51.938;8.464;2023-11-21T08:20:55;24.17;;;15.83;;
22097;SDS011;11215;51.938;8.464;2023-11-21T08:23:28;21.90;;;15.87;;
22097;SDS011;11215;51.938;8.464;2023-11-21T08:25:54;24.83;;;15.77;;
22097;SDS011;11215;51.938;8.464;2023-11-21T08:28:21;26.87;;;16.33;;
22097;SDS011;11215;51.938;8.464;2023-11-21T08:30:52;21.60;;;15.97;;
22097;SDS011;11215;51.938;8.464;2023-11-21T08:33:19;22.33;;;16.13;;
22097;SDS011;11215;51.938;8.464;2023-11-21T08:35:45;26.27;;;15.60;;
22097;SDS011;11215;51.938;8.464;2023-11-21T08:38:11;23.90;;;15.33;;
22097;SDS011;11215;51.938;8.464;2023-11-21T08:40:37;23.23;;;14.93;;
22097;SDS011;11215;51.938;8.464;2023-11-21T08:43:03;21.70;;;15.53;;
22097;SDS011;11215;51.938;8.464;2023-11-21T08:45:33;24.03;;;14.47;;
22097;SDS011;11215;51.938;8.464;2023-11-21T08:48:02;18.67;;;14.07;;
22097;SDS011;11215;51.938;8.464;2023-11-21T08:50:28;21.57;;;14.33;;
22097;SDS011;11215;51.938;8.464;2023-11-21T08:52:54;19.10;;;14.37;;
22097;SDS011;11215;51.938;8.464;2023-11-21T08:55:20;17.47;;;13.13;;
22097;SDS011;11215;51.938;8.464;2023-11-21T08:57:47;18.03;;;13.53;;
22097;SDS011;11215;51.938;8.464;2023-11-21T09:00:13;20.40;;;13.83;;
22097;SDS011;11215;51.938;8.464;2023-11-21T09:02:42;17.07;;;12.50;;
22097;SDS011;11215;51.938;8.464;2023-11-21T09:05:09;20.73;;;13.73;;
22097;SDS011;11215;51.938;8.464;2023-11-21T09:07:36;18.67;;;12.53;;
22097;SDS011;11215;51.938;8.464;2023-11-21T09:10:03;18.73;;;13.77;;
22097;SDS011;11215;51.938;8.464;2023-11-21T09:12:32;17.97;;;13.50;;
22097;SDS011;11215;51.938;8.464;2023-11-21T09:15:01;19.17;;;13.10;;
22097;SDS011;11215;51.938;8.464;2023-11-21T09:17:31;19.77;;;13.50;;
22097;SDS011;11215;51.938;8.464;2023-11-21T09:19:57;19.33;;;13.20;;
22097;SDS011;11215;51.938;8.464;2023-11-21T09:22:24;17.73;;;11.93;;
22097;SDS011;11215;51.938;8.464;2023-11-21T09:24:53;22.47;;;14.13;;
22097;SDS011;11215;51.938;8.464;2023-11-21T09:27:21;18.20;;;13.27;;
22097;SDS011;11215;51.938;8.464;2023-11-21T09:29:47;17.87;;;13.17;;
22097;SDS011;11215;51.938;8.464;2023-11-21T09:32:14;19.73;;;13.37;;
22097;SDS011;11215;51.938;8.464;2023-11-21T09:34:43;19.97;;;12.87;;
22097;SDS011;11215;51.938;8.464;2023-11-21T09:37:10;18.73;;;13.47;;
22097;SDS011;11215;51.938;8.464;2023-11-21T09:39:36;18.50;;;12.50;;
22097;SDS011;11215;51.938;8.464;2023-11-21T09:42:04;22.90;;;13.07;;
22097;SDS011;11215;51.938;8.464;2023-11-21T09:44:36;20.90;;;12.83;;
22097;SDS011;11215;51.938;8.464;2023-11-21T09:47:08;17.80;;;10.80;;
22097;SDS011;11215;51.938;8.464;2023-11-21T09:49:39;15.07;;;9.87;;
22097;SDS011;11215;51.938;8.464;2023-11-21T09:52:05;16.20;;;10.03;;
22097;SDS011;11215;51.938;8.464;2023-11-21T09:54:40;15.90;;;9.63;;
22097;SDS011;11215;51.938;8.464;2023-11-21T09:57:06;12.77;;;8.90;;
22097;SDS011;11215;51.938;8.464;2023-11-21T09:59:32;13.07;;;8.10;;
22097;SDS011;11215;51.938;8.464;2023-11-21T10:01:58;12.53;;;8.67;;
22097;SDS011;11215;51.938;8.464;2023-11-21T10:04:25;11.37;;;7.47;;
22097;SDS011;11215;51.938;8.464;2023-11-21T10:06:52;12.07;;;7.70;;
22097;SDS011;11215;51.938;8.464;2023-11-21T10:09:19;13.47;;;7.90;;
22097;SDS011;11215;51.938;8.464;2023-11-21T10:11:46;10.57;;;7.27;;
22097;SDS011;11215;51.938;8.464;2023-11-21T10:14:17;12.07;;;7.90;;
22097;SDS011;11215;51.938;8.464;2023-11-21T10:16:46;10.67;;;7.50;;
22097;SDS011;11215;51.938;8.464;2023-11-21T10:19:13;10.63;;;7.53;;
22097;SDS011;11215;51.938;8.464;2023-11-21T10:21:44;9.63;;;7.80;;
22097;SDS011;11215;51.938;8.464;2023-11-21T10:24:10;10.50;;;8.03;;
22097;SDS011;11215;51.938;8.464;2023-11-21T10:26:37;10.10;;;7.67;;
22097;SDS011;11215;51.938;8.464;2023-11-21T10:29:03;8.47;;;7.03;;
22097;SDS011;11215;51.938;8.464;2023-11-21T10:31:32;9.80;;;7.10;;
22097;SDS011;11215;51.938;8.464;2023-11-21T10:34:15;10.80;;;7.00;;
22097;SDS011;11215;51.938;8.464;2023-11-21T10:36:41;7.67;;;6.43;;
22097;SDS011;11215;51.938;8.464;2023-11-21T10:39:07;8.47;;;6.53;;
22097;SDS011;11215;51.938;8.464;2023-11-21T10:41:34;8.50;;;6.60;;
22097;SDS011;11215;51.938;8.464;2023-11-21T10:44:00;8.57;;;5.37;;
22097;SDS011;11215;51.938;8.464;2023-11-21T10:46:32;6.83;;;5.23;;
22097;SDS011;11215;51.938;8.464;2023-11-21T10:48:59;8.60;;;5.57;;
22097;SDS011;11215;51.938;8.464;2023-11-21T10:51:25;7.60;;;5.50;;
22097;SDS011;11215;51.938;8.464;2023-11-21T10:53:55;6.23;;;5.03;;
22097;SDS011;11215;51.938;8.464;2023-11-21T10:56:23;8.63;;;5.27;;
22097;SDS011;11215;51.938;8.464;2023-11-21T10:58:51;9.63;;;4.60;;
22097;SDS011;11215;51.938;8.464;2023-11-21T11:01:21;6.70;;;4.73;;
22097;SDS011;11215;51.938;8.464;2023-11-21T11:03:54;8.40;;;5.77;;
22097;SDS011;11215;51.938;8.464;2023-11-21T11:06:21;9.63;;;5.03;;
22097;SDS011;11215;51.938;8.464;2023-11-21T11:08:48;7.10;;;4.67;;
22097;SDS011;11215;51.938;8.464;2023-11-21T11:11:15;5.53;;;4.60;;
22097;SDS011;11215;51.938;8.464;2023-11-21T11:13:42;6.20;;;4.20;;
22097;SDS011;11215;51.938;8.464;2023-11-21T11:16:10;4.43;;;3.50;;
22097;SDS011;11215;51.938;8.464;2023-11-21T11:18:42;5.17;;;3.20;;
22097;SDS011;11215;51.938;8.464;2023-11-21T11:29:41;3.80;;;3.20;;
22097;SDS011;11215;51.938;8.464;2023-11-21T11:32:21;4.83;;;3.53;;
22097;SDS011;11215;51.938;8.464;2023-11-21T11:35:26;6.27;;;3.53;;
22097;SDS011;11215;51.938;8.464;2023-11-21T11:37:59;4.30;;;3.80;;
22097;SDS011;11215;51.938;8.464;2023-11-21T11:40:38;5.67;;;4.00;;
22097;SDS011;11215;51.938;8.464;2023-11-21T11:43:05;5.23;;;3.77;;
22097;SDS011;11215;51.938;8.464;2023-11-21T11:45:32;7.83;;;3.53;;
22097;SDS011;11215;51.938;8.464;2023-11-21T11:48:05;3.63;;;3.10;;
22097;SDS011;11215;51.938;8.464;2023-11-21T11:50:31;4.00;;;2.97;;
22097;SDS011;11215;51.938;8.464;2023-11-21T11:53:11;4.80;;;3.30;;
22097;SDS011;11215;51.938;8.464;2023-11-21T11:55:39;4.87;;;4.00;;
22097;SDS011;11215;51.938;8.464;2023-11-21T11:58:05;4.50;;;3.70;;
22097;SDS011;11215;51.938;8.464;2023-11-21T12:03:02;7.70;;;4.90;;
22097;SDS011;11215;51.938;8.464;2023-11-21T12:05:31;7.27;;;5.83;;
22097;SDS011;11215;51.938;8.464;2023-11-21T12:08:01;8.23;;;6.47;;
22097;SDS011;11215;51.938;8.464;2023-11-21T12:10:35;7.27;;;5.53;;
22097;SDS011;11215;51.938;8.464;2023-11-21T12:13:05;7.73;;;5.97;;
22097;SDS011;11215;51.938;8.464;2023-11-21T12:15:35;7.23;;;5.80;;
22097;SDS011;11215;51.938;8.464;2023-11-21T12:18:02;11.13;;;5.80;;
22097;SDS011;11215;51.938;8.464;2023-11-21T12:20:37;8.17;;;5.77;;
22097;SDS011;11215;51.938;8.464;2023-11-21T12:23:12;7.97;;;5.70;;
22097;SDS011;11215;51.938;8.464;2023-11-21T12:25:40;7.37;;;5.17;;
22097;SDS011;11215;51.938;8.464;2023-11-21T12:28:06;8.10;;;5.37;;
22097;SDS011;11215;51.938;8.464;2023-11-21T12:30:33;8.67;;;6.03;;
22097;SDS011;11215;51.938;8.464;2023-11-21T12:33:03;8.33;;;5.97;;
22097;SDS011;11215;51.938;8.464;2023-11-21T12:35:33;8.47;;;6.37;;
22097;SDS011;11215;51.938;8.464;2023-11-21T12:38:00;9.43;;;6.97;;
22097;SDS011;11215;51.938;8.464;2023-11-21T12:40:34;8.57;;;6.90;;
22097;SDS011;11215;51.938;8.464;2023-11-21T12:43:00;8.53;;;6.70;;
22097;SDS011;11215;51.938;8.464;2023-11-21T12:45:29;10.03;;;7.20;;
22097;SDS011;11215;51.938;8.464;2023-11-21T12:48:03;9.47;;;6.63;;
22097;SDS011;11215;51.938;8.464;2023-11-21T12:50:37;8.63;;;6.43;;
22097;SDS011;11215;51.938;8.464;2023-11-21T12:53:07;7.80;;;6.50;;
22097;SDS011;11215;51.938;8.464;2023-11-21T12:55:35;10.33;;;6.97;;
22097;SDS011;11215;51.938;8.464;2023-11-21T12:58:02;8.87;;;6.97;;
22097;SDS011;11215;51.938;8.464;2023-11-21T13:00:37;9.17;;;7.20;;
22097;SDS011;11215;51.938;8.464;2023-11-21T13:03:05;9.77;;;7.23;;
22097;SDS011;11215;51.938;8.464;2023-11-21T13:05:35;10.43;;;7.77;;
22097;SDS011;11215;51.938;8.464;2023-11-21T13:08:07;10.93;;;7.00;;
22097;SDS011;11215;51.938;8.464;2023-11-21T13:10:37;9.27;;;6.77;;
22097;SDS011;11215;51.938;8.464;2023-11-21T13:13:10;9.40;;;6.30;;
22097;SDS011;11215;51.938;8.464;2023-11-21T13:15:53;8.30;;;6.70;;
22097;SDS011;11215;51.938;8.464;2023-11-21T13:18:23;9.43;;;6.33;;
22097;SDS011;11215;51.938;8.464;2023-11-21T13:20:53;8.50;;;6.37;;
22097;SDS011;11215;51.938;8.464;2023-11-21T13:23:20;7.17;;;5.73;;
22097;SDS011;11215;51.938;8.464;2023-11-21T13:25:49;7.77;;;5.93;;
22097;SDS011;11215;51.938;8.464;2023-11-21T13:28:15;7.73;;;5.90;;
22097;SDS011;11215;51.938;8.464;2023-11-21T13:30:43;8.53;;;5.40;;
22097;SDS011;11215;51.938;8.464;2023-11-21T13:33:10;8.80;;;5.77;;
22097;SDS011;11215;51.938;8.464;2023-11-21T13:35:42;7.10;;;5.50;;
22097;SDS011;11215;51.938;8.464;2023-11-21T13:38:14;6.90;;;5.23;;
22097;SDS011;11215;51.938;8.464;2023-11-21T13:40:47;7.83;;;6.10;;
22097;SDS011;11215;51.938;8.464;2023-11-21T13:43:20;8.83;;;6.27;;
22097;SDS011;11215;51.938;8.464;2023-11-21T13:45:49;8.97;;;6.50;;
22097;SDS011;11215;51.938;8.464;2023-11-21T13:48:23;17.53;;;10.30;;
22097;SDS011;11215;51.938;8.464;2023-11-21T13:51:07;10.63;;;6.50;;
22097;SDS011;11215;51.938;8.464;2023-11-21T13:53:43;9.10;;;6.93;;
22097;SDS011;11215;51.938;8.464;2023-11-21T13:56:14;8.00;;;6.30;;
22097;SDS011;11215;51.938;8.464;2023-11-21T13:58:45;8.47;;;5.57;;
22097;SDS011;11215;51.938;8.464;2023-11-21T14:01:17;10.53;;;6.27;;
22097;SDS011;11215;51.938;8.464;2023-11-21T14:03:59;8.13;;;6.03;;
22097;SDS011;11215;51.938;8.464;2023-11-21T14:06:48;6.73;;;5.13;;
22097;SDS011;11215;51.938;8.464;2023-11-21T14:09:21;7.43;;;4.93;;
22097;SDS011;11215;51.938;8.464;2023-11-21T14:11:53;7.80;;;5.30;;
22097;SDS011;11215;51.938;8.464;2023-11-21T14:14:25;6.17;;;4.63;;
22097;SDS011;11215;51.938;8.464;2023-11-21T14:16:52;6.83;;;6.13;;
22097;SDS011;11215;51.938;8.464;2023-11-21T14:19:18;7.60;;;5.67;;
22097;SDS011;11215;51.938;8.464;2023-11-21T14:21:45;7.00;;;5.67;;
22097;SDS011;11215;51.938;8.464;2023-11-21T14:24:12;8.03;;;5.80;;
22097;SDS011;11215;51.938;8.464;2023-11-21T14:26:39;6.37;;;5.40;;
22097;SDS011;11215;51.938;8.464;2023-11-21T14:29:06;7.53;;;5.90;;
22097;SDS011;11215;51.938;8.464;2023-11-21T14:31:33;7.03;;;5.27;;
22097;SDS011;11215;51.938;8.464;2023-11-21T14:33:59;6.83;;;5.63;;
22097;SDS011;11215;51.938;8.464;2023-11-21T14:36:27;6.93;;;5.20;;
22097;SDS011;11215;51.938;8.464;2023-11-21T14:38:53;6.40;;;5.40;;
22097;SDS011;11215;51.938;8.464;2023-11-21T14:41:19;7.87;;;5.77;;
22097;SDS011;11215;51.938;8.464;2023-11-21T14:43:44;8.40;;;5.80;;
22097;SDS011;11215;51.938;8.464;2023-11-21T14:46:14;7.17;;;5.17;;
22097;SDS011;11215;51.938;8.464;2023-11-21T14:48:42;7.57;;;6.17;;